Time;durP1;ratioP1;P1;durP2;ratioP2;P2;SDS_P1;SDS_P2;PMS_P1;PMS_P2;Temp;Humidity;BMP_temperature;BMP_pressure;BME280_temperature;BME280_humidity;BME280_pressure;Samples;Min_cycle;Max_cycle;Signal;HPM_P1;HPM_P2
2023/06/22 00:00:19;;;;;;;7.32;6.10;;;;;;;19.16;87.84;63984.72;5081569;28;20199;-72
2023/06/22 00:02:46;;;;;;;6.90;6.32;;;;;;;19.04;88.79;63969.63;5086854;28;20192;-77
2023/06/22 00:05:13;;;;;;;6.97;6.20;;;;;;;19.04;88.27;63971.69;5085378;28;20427;-75
2023/06/22 00:07:40;;;;;;;7.03;6.32;;;;;;;18.99;87.82;63963.88;5084180;28;20476;-74
2023/06/22 00:10:08;;;;;;;6.72;6.03;;;;;;;18.94;90.35;63958.69;5069630;28;20219;-75
2023/06/22 00:12:37;;;;;;;6.28;5.78;;;;;;;18.84;91.48;63950.84;5066102;28;20192;-75
2023/06/22 00:15:05;;;;;;;7.15;6.55;;;;;;;18.82;91.66;63953.91;5065545;28;20208;-74
2023/06/22 00:17:31;;;;;;;10.38;6.45;;;;;;;18.77;93.83;63941.47;5069408;28;20213;-75
2023/06/22 00:20:00;;;;;;;5.78;5.35;;;;;;;18.74;94.14;63940.94;5065080;28;20235;-74
2023/06/22 00:22:29;;;;;;;8.15;5.78;;;;;;;18.70;93.37;63936.75;5065487;28;20243;-75
2023/06/22 00:24:56;;;;;;;7.28;5.88;;;;;;;18.61;91.28;63927.38;5066751;28;20220;-75
2023/06/22 00:27:23;;;;;;;6.57;5.97;;;;;;;18.59;91.03;63924.78;5064990;28;20221;-75
2023/06/22 00:29:52;;;;;;;8.13;6.20;;;;;;;18.61;90.28;63926.84;5064473;28;20224;-74
2023/06/22 00:32:19;;;;;;;6.60;6.10;;;;;;;18.57;90.25;63923.22;5066157;28;20213;-76
2023/06/22 00:34:46;;;;;;;6.88;6.15;;;;;;;18.63;89.31;63923.78;5073016;28;20219;-74
2023/06/22 00:37:13;;;;;;;6.10;5.57;;;;;;;18.60;87.97;63926.34;5077837;28;20232;-75
2023/06/22 00:39:40;;;;;;;6.13;5.72;;;;;;;18.59;87.25;63922.72;5072282;28;20224;-74
2023/06/22 00:42:07;;;;;;;6.15;5.65;;;;;;;18.58;85.73;63923.72;5065273;28;20223;-75
2023/06/22 00:44:34;;;;;;;5.97;5.47;;;;;;;18.63;84.82;63934.09;5073370;28;20408;-74
2023/06/22 00:47:03;;;;;;;6.50;5.90;;;;;;;18.68;84.83;63932.09;5085358;28;20411;-75
2023/06/22 00:49:31;;;;;;;5.95;5.45;;;;;;;18.65;84.28;63925.88;5085361;28;20196;-74
2023/06/22 00:51:58;;;;;;;6.60;6.10;;;;;;;18.68;84.43;63934.69;5086582;28;20242;-75
2023/06/22 00:54:26;;;;;;;6.22;5.72;;;;;;;18.58;84.13;63926.84;5068773;28;20207;-75
2023/06/22 00:56:54;;;;;;;5.95;5.45;;;;;;;18.59;84.47;63930.44;5065759;28;20255;-76
2023/06/22 00:59:21;;;;;;;6.30;5.80;;;;;;;18.64;84.78;63927.91;5064600;28;20227;-76
2023/06/22 01:01:48;;;;;;;6.95;6.35;;;;;;;18.69;83.36;63935.22;5064406;28;20411;-76
2023/06/22 01:04:18;;;;;;;6.13;5.60;;;;;;;18.70;82.47;63931.59;5073857;28;20230;-75
2023/06/22 01:07:04;;;;;;;6.18;5.68;;;;;;;18.75;81.92;63941.97;5084806;28;20524;-76
2023/06/22 01:09:37;;;;;;;6.82;6.22;;;;;;;18.91;79.19;63953.50;5079660;28;20208;-75
2023/06/22 01:12:10;;;;;;;5.93;5.38;;;;;;;18.98;78.19;63965.44;5070229;28;20216;-74
2023/06/22 01:14:42;;;;;;;5.88;5.38;;;;;;;18.98;77.85;63965.44;5064422;28;20203;-76
2023/06/22 01:17:12;;;;;;;5.53;5.13;;;;;;;18.96;77.91;63963.34;5064219;28;20262;-74
2023/06/22 01:19:47;;;;;;;6.05;5.65;;;;;;;18.94;78.58;63961.78;5064385;28;20197;-75
2023/06/22 01:22:18;;;;;;;5.68;5.25;;;;;;;18.98;79.44;63965.94;5067253;28;20220;-73
2023/06/22 01:24:56;;;;;;;6.07;5.47;;;;;;;18.95;79.21;63957.66;5064024;28;20223;-75
2023/06/22 01:27:34;;;;;;;6.63;6.10;;;;;;;18.97;79.98;63967.50;5064611;28;20282;-73
2023/06/22 01:30:05;;;;;;;6.03;5.53;;;;;;;18.97;79.79;63964.38;5063112;28;20226;-75
2023/06/22 01:32:35;;;;;;;6.68;6.18;;;;;;;18.96;81.57;63963.88;5063982;28;20389;-73
2023/06/22 01:35:04;;;;;;;7.05;6.38;;;;;;;18.89;84.22;63953.47;5064977;28;20209;-74
2023/06/22 01:37:33;;;;;;;6.55;6.00;;;;;;;18.77;86.34;63941.47;5066480;28;20204;-73
2023/06/22 01:40:01;;;;;;;7.38;6.57;;;;;;;18.72;87.45;63933.16;5065658;28;20205;-74
2023/06/22 01:42:28;;;;;;;6.95;6.35;;;;;;;18.71;88.10;63937.28;5063100;28;20193;-74
2023/06/22 01:44:56;;;;;;;9.35;5.70;;;;;;;18.61;89.60;63921.69;5064886;28;20291;-74
2023/06/22 01:47:27;;;;;;;6.78;6.18;;;;;;;18.54;90.19;63917.50;5063720;28;20221;-76
2023/06/22 01:49:54;;;;;;;6.57;6.03;;;;;;;18.36;90.50;63899.25;5079773;28;20226;-76
2023/06/22 01:52:22;;;;;;;6.90;6.40;;;;;;;18.39;91.17;63904.44;5085488;28;20219;-74
2023/06/22 01:54:49;;;;;;;6.10;5.32;;;;;;;18.36;90.94;63899.25;5063940;28;20428;-74
2023/06/22 01:57:16;;;;;;;5.97;5.47;;;;;;;18.36;91.89;63896.16;5067531;28;20266;-76
2023/06/22 01:59:54;;;;;;;8.25;6.30;;;;;;;18.35;92.35;63900.25;5083999;28;20437;-73
2023/06/22 02:02:26;;;;;;;6.38;5.88;;;;;;;18.36;92.26;63901.31;5081429;28;20227;-75
2023/06/22 02:05:00;;;;;;;5.90;5.50;;;;;;;18.29;93.31;63891.94;5084580;28;20251;-74
2023/06/22 02:07:33;;;;;;;6.15;5.55;;;;;;;18.26;92.30;63890.88;5082476;28;20202;-74
2023/06/22 02:10:03;;;;;;;7.13;6.53;;;;;;;18.24;92.65;63884.16;5074293;28;20196;-74
2023/06/22 02:12:32;;;;;;;7.40;6.38;;;;;;;18.28;91.59;63895.53;5072773;28;20219;-74
2023/06/22 02:15:01;;;;;;;6.43;6.00;;;;;;;18.29;89.50;63891.44;5062988;28;20219;-74
2023/06/22 02:17:32;;;;;;;6.55;6.05;;;;;;;18.35;91.07;63892.53;5064581;28;20216;-74
2023/06/22 02:20:04;;;;;;;6.28;5.75;;;;;;;18.39;91.19;63901.84;5064539;28;20371;-74
2023/06/22 02:22:31;;;;;;;6.55;5.95;;;;;;;18.45;91.33;63910.19;5063337;28;20201;-74
2023/06/22 02:24:58;;;;;;;6.20;5.70;;;;;;;18.43;92.39;63900.88;5063556;28;20368;-75
2023/06/22 02:27:25;;;;;;;6.97;6.10;;;;;;;18.41;91.95;63904.47;5082728;28;20196;-74
2023/06/22 02:29:52;;;;;;;6.28;5.78;;;;;;;18.35;93.95;63895.63;5081531;28;20497;-74
2023/06/22 02:32:19;;;;;;;6.57;6.07;;;;;;;18.30;94.80;63889.91;5084510;28;20454;-74
2023/06/22 02:34:47;;;;;;;6.32;5.72;;;;;;;18.26;94.80;63890.88;5068819;28;20201;-73
2023/06/22 02:37:16;;;;;;;6.93;6.30;;;;;;;18.15;96.04;63879.44;5063252;28;20235;-75
2023/06/22 02:39:43;;;;;;;7.15;6.55;;;;;;;18.15;96.37;63874.78;5069958;28;20196;-74
2023/06/22 02:42:11;;;;;;;6.70;6.10;;;;;;;18.18;94.66;63883.06;5082232;28;20224;-74
2023/06/22 02:44:38;;;;;;;7.97;6.03;;;;;;;18.15;94.35;63876.84;5063086;28;20228;-74
2023/06/22 02:47:05;;;;;;;7.28;6.68;;;;;;;18.18;93.53;63882.56;5064508;28;20239;-74
2023/06/22 02:49:33;;;;;;;7.43;6.72;;;;;;;18.17;93.77;63876.88;5062463;28;20494;-74
2023/06/22 02:52:00;;;;;;;7.53;6.75;;;;;;;18.13;95.65;63874.75;5062304;28;20248;-75
2023/06/22 02:54:28;;;;;;;7.53;6.93;;;;;;;18.11;96.06;63875.78;5068524;28;20250;-73
2023/06/22 02:56:55;;;;;;;7.18;6.57;;;;;;;18.11;96.13;63875.78;5066635;28;20445;-75
2023/06/22 02:59:23;;;;;;;6.88;6.38;;;;;;;18.10;97.37;63874.72;5088253;28;20208;-75
2023/06/22 03:01:50;;;;;;;7.93;7.22;;;;;;;18.13;99.45;63877.34;5071909;28;20233;-75
2023/06/22 03:04:19;;;;;;;7.60;6.90;;;;;;;18.17;100.00;63878.94;5066923;28;20225;-76
2023/06/22 03:06:50;;;;;;;7.90;7.15;;;;;;;18.15;100.00;63874.78;5067136;28;20240;-75
2023/06/22 03:09:18;;;;;;;7.72;6.95;;;;;;;18.19;100.00;63878.44;5067325;28;20219;-73
2023/06/22 03:11:46;;;;;;;8.05;7.32;;;;;;;18.24;100.00;63886.22;5068765;28;20221;-75
2023/06/22 03:14:13;;;;;;;7.50;6.90;;;;;;;18.28;100.00;63890.38;5068584;28;20216;-75
2023/06/22 03:16:41;;;;;;;7.32;6.65;;;;;;;18.27;100.00;63892.44;5066977;28;20288;-76
2023/06/22 03:19:08;;;;;;;7.03;6.43;;;;;;;18.29;100.00;63894.53;5071574;28;20203;-74
2023/06/22 03:21:37;;;;;;;6.85;6.35;;;;;;;18.28;100.00;63888.34;5086846;28;20244;-75
2023/06/22 03:24:04;;;;;;;7.88;6.95;;;;;;;18.38;100.00;63901.34;5088314;28;20204;-74
2023/06/22 03:26:31;;;;;;;7.55;6.90;;;;;;;18.40;100.00;63906.03;5082341;28;20264;-73
2023/06/22 03:28:59;;;;;;;8.02;7.22;;;;;;;18.44;100.00;63907.09;5076797;28;20239;-74
2023/06/22 03:31:27;;;;;;;7.80;7.15;;;;;;;18.50;100.00;63912.81;5066487;28;20216;-75
2023/06/22 03:33:54;;;;;;;8.63;7.82;;;;;;;18.57;100.00;63922.69;5066535;28;20200;-75
2023/06/22 03:36:22;;;;;;;7.57;6.88;;;;;;;18.56;100.00;63917.00;5065017;28;20232;-74
2023/06/22 03:38:49;;;;;;;8.15;7.38;;;;;;;18.59;100.00;63922.72;5066355;28;20284;-73
2023/06/22 03:41:16;;;;;;;8.63;6.72;;;;;;;18.72;100.00;63938.84;5070472;28;20231;-74
2023/06/22 03:43:43;;;;;;;7.60;6.95;;;;;;;18.77;100.00;63941.47;5069311;28;20196;-75
2023/06/22 03:46:12;;;;;;;6.85;6.25;;;;;;;18.88;100.00;63955.00;5064893;28;20263;-75
2023/06/22 03:48:40;;;;;;;7.95;7.15;;;;;;;18.74;100.00;63943.00;5065833;28;20424;-74
2023/06/22 03:51:07;;;;;;;8.50;7.80;;;;;;;18.80;100.00;63946.66;5065972;28;20220;-75
2023/06/22 03:53:33;;;;;;;8.63;7.75;;;;;;;18.81;100.00;63947.72;5065813;28;20193;-74
2023/06/22 03:56:00;;;;;;;9.05;7.80;;;;;;;18.95;100.00;63959.72;5068461;28;20244;-75
2023/06/22 03:58:32;;;;;;;8.82;8.00;;;;;;;18.94;99.15;63958.69;5067409;28;20193;-73
2023/06/22 04:01:00;;;;;;;10.60;9.50;;;;;;;18.71;100.00;63940.38;5065921;28;20259;-75
2023/06/22 04:03:29;;;;;;;12.68;9.90;;;;;;;18.58;100.00;63921.69;5064191;28;20512;-74
2023/06/22 04:05:56;;;;;;;15.20;11.82;;;;;;;18.64;100.00;63930.50;5065437;28;20239;-74
2023/06/22 04:08:23;;;;;;;15.68;12.50;;;;;;;18.66;100.00;63932.06;5065340;28;20203;-76
2023/06/22 04:10:50;;;;;;;13.93;11.05;;;;;;;18.60;100.00;63923.25;5067776;28;20224;-74
2023/06/22 04:13:17;;;;;;;15.98;11.07;;;;;;;18.52;100.00;63915.41;5071973;28;20200;-76
2023/06/22 04:15:45;;;;;;;12.55;11.18;;;;;;;18.64;100.00;63930.50;5085482;28;20247;-74
2023/06/22 04:18:11;;;;;;;12.77;11.23;;;;;;;18.80;100.00;63949.78;5085971;28;20597;-74
2023/06/22 04:20:40;;;;;;;13.85;10.85;;;;;;;18.87;100.00;63954.50;5084371;28;20544;-74
2023/06/22 04:23:07;;;;;;;11.93;10.80;;;;;;;18.90;100.00;63952.44;5071519;28;20201;-74
2023/06/22 04:25:34;;;;;;;12.07;10.90;;;;;;;19.03;100.00;63968.06;5070536;28;20290;-74
2023/06/22 04:28:03;;;;;;;11.50;10.40;;;;;;;19.08;100.00;63973.28;5083338;28;20226;-75
2023/06/22 04:30:31;;;;;;;11.05;9.30;;;;;;;19.29;100.00;63995.69;5072999;28;20231;-73
2023/06/22 04:32:58;;;;;;;9.90;9.00;;;;;;;19.38;100.00;64012.84;5073750;28;20266;-74
2023/06/22 04:35:25;;;;;;;10.80;9.65;;;;;;;19.54;100.00;64018.69;5085474;28;20224;-74
2023/06/22 04:37:55;;;;;;;10.45;9.07;;;;;;;19.66;100.00;64028.59;5087605;28;20254;-74
2023/06/22 04:40:23;;;;;;;9.18;8.38;;;;;;;19.86;100.00;64056.72;5075034;28;20216;-74
2023/06/22 04:42:53;;;;;;;9.45;8.55;;;;;;;20.03;100.00;64074.97;5081176;28;20211;-75
2023/06/22 04:45:21;;;;;;;10.52;8.43;;;;;;;20.10;100.00;64079.69;5085620;28;20319;-75
2023/06/22 04:47:48;;;;;;;8.55;7.85;;;;;;;20.26;100.00;64098.47;5085362;28;20204;-76
2023/06/22 04:50:16;;;;;;;10.52;8.55;;;;;;;20.31;100.00;64101.59;5079959;28;20279;-75
2023/06/22 04:52:43;;;;;;;8.80;7.78;;;;;;;20.18;100.00;64088.06;5065039;28;20199;-74
2023/06/22 04:55:11;;;;;;;8.70;7.97;;;;;;;20.15;100.00;64084.91;5064808;28;20409;-75
2023/06/22 04:57:39;;;;;;;9.77;8.45;;;;;;;20.15;100.00;64084.38;5068254;28;20206;-73
2023/06/22 05:00:16;;;;;;;9.80;8.80;;;;;;;20.10;100.00;64084.34;5065038;28;20204;-74
2023/06/22 05:02:44;;;;;;;9.63;8.68;;;;;;;20.22;100.00;64094.28;5066379;28;20188;-73
2023/06/22 05:05:13;;;;;;;9.65;8.77;;;;;;;20.26;100.00;64101.06;5064087;28;20232;-75
2023/06/22 05:07:42;;;;;;;11.50;9.85;;;;;;;20.38;100.00;64111.00;5064700;28;20437;-74
2023/06/22 05:10:12;;;;;;;15.85;10.52;;;;;;;20.33;100.00;64106.28;5076135;28;20519;-73
2023/06/22 05:12:39;;;;;;;15.93;11.15;;;;;;;20.31;100.00;64101.59;5084621;28;20444;-75
2023/06/22 05:15:08;;;;;;;13.38;10.32;;;;;;;20.30;100.00;64100.56;5074932;28;20207;-74
2023/06/22 05:17:36;;;;;;;13.93;11.35;;;;;;;20.38;100.00;64103.25;5065812;28;20271;-75
2023/06/22 05:20:06;;;;;;;13.40;11.75;;;;;;;20.55;100.00;64126.66;5069331;28;20212;-75
2023/06/22 05:22:33;;;;;;;15.95;11.70;;;;;;;20.61;98.04;64127.22;5082327;28;20211;-74
2023/06/22 05:25:00;;;;;;;16.05;11.48;;;;;;;20.80;96.24;64152.25;5084730;28;20228;-76
2023/06/22 05:27:28;;;;;;;12.20;10.27;;;;;;;20.80;95.62;64154.81;5064963;28;20201;-77
2023/06/22 05:29:55;;;;;;;12.63;11.10;;;;;;;21.05;95.51;64180.97;5071340;28;20247;-76
2023/06/22 05:32:22;;;;;;;11.50;9.88;;;;;;;21.08;97.39;64183.56;5084382;28;20223;-74
2023/06/22 05:34:49;;;;;;;16.75;10.63;;;;;;;21.12;97.02;64188.25;5083832;28;20242;-75
2023/06/22 05:37:16;;;;;;;12.27;10.15;;;;;;;21.17;96.20;64190.38;5081707;28;20235;-76
2023/06/22 05:39:43;;;;;;;14.75;9.88;;;;;;;21.32;92.70;64209.16;5084855;28;20200;-75
2023/06/22 05:42:10;;;;;;;18.20;10.35;;;;;;;21.32;90.37;64209.16;5089061;28;20225;-74
2023/06/22 05:44:40;;;;;;;13.13;11.55;;;;;;;21.20;92.33;64199.22;5071934;28;20367;-80
2023/06/22 05:47:07;;;;;;;12.73;10.90;;;;;;;21.21;95.25;64200.25;5063541;28;20556;-75
2023/06/22 05:49:34;;;;;;;15.00;11.55;;;;;;;21.19;97.22;64198.16;5072844;28;20231;-75
2023/06/22 05:52:01;;;;;;;18.02;12.65;;;;;;;21.37;97.12;64213.84;5064003;28;20292;-76
2023/06/22 05:54:28;;;;;;;12.43;11.13;;;;;;;21.48;93.14;64225.88;5066480;28;20196;-77
2023/06/22 05:56:56;;;;;;;15.60;10.85;;;;;;;21.60;91.81;64233.22;5065235;28;20273;-77
2023/06/22 05:59:23;;;;;;;16.40;11.35;;;;;;;21.87;90.41;64263.00;5078255;28;20213;-75
2023/06/22 06:01:51;;;;;;;11.98;10.77;;;;;;;21.90;86.87;64266.13;5082540;28;20220;-76
2023/06/22 06:04:19;;;;;;;12.30;11.05;;;;;;;21.92;86.43;64271.34;5083457;28;20256;-75
2023/06/22 06:06:46;;;;;;;11.95;10.10;;;;;;;22.01;85.02;64280.22;5083418;28;20235;-75
2023/06/22 06:09:14;;;;;;;17.60;11.52;;;;;;;22.18;81.60;64297.97;5067588;28;20208;-76
2023/06/22 06:11:42;;;;;;;12.63;10.52;;;;;;;22.26;82.07;64306.34;5064813;28;20216;-75
2023/06/22 06:14:09;;;;;;;14.30;11.30;;;;;;;22.09;85.68;64291.69;5062986;28;20268;-74
2023/06/22 06:16:36;;;;;;;11.18;10.00;;;;;;;22.19;85.70;64293.84;5063297;28;20234;-76
2023/06/22 06:19:05;;;;;;;13.15;10.82;;;;;;;22.42;83.70;64323.06;5069150;28;20444;-75
2023/06/22 06:21:32;;;;;;;11.88;10.35;;;;;;;22.73;81.43;64353.44;5084084;28;20258;-74
2023/06/22 06:23:59;;;;;;;12.93;10.38;;;;;;;22.83;82.67;64365.97;5086033;28;20250;-76
2023/06/22 06:26:29;;;;;;;11.43;10.15;;;;;;;22.89;84.24;64369.63;5071904;28;20228;-75
2023/06/22 06:28:57;;;;;;;13.88;10.93;;;;;;;22.96;82.45;64376.97;5068277;28;20236;-76
2023/06/22 06:31:24;;;;;;;10.63;9.73;;;;;;;23.14;77.96;64397.88;5067787;28;20262;-75
2023/06/22 06:33:51;;;;;;;12.07;9.88;;;;;;;23.51;77.12;64439.19;5068486;28;20201;-78
2023/06/22 06:36:20;;;;;;;20.42;10.57;;;;;;;23.71;71.60;64450.22;5072148;28;20207;-76
2023/06/22 06:38:47;;;;;;;11.45;10.00;;;;;;;23.91;71.28;64481.56;5076449;28;20503;-74
2023/06/22 06:41:14;;;;;;;16.65;9.85;;;;;;;24.06;69.53;64494.16;5068123;28;20212;-75
2023/06/22 06:43:42;;;;;;;10.85;9.75;;;;;;;24.05;71.86;64493.13;5067036;28;20247;-76
2023/06/22 06:46:10;;;;;;;11.95;10.27;;;;;;;24.20;73.46;64503.59;5077348;28;20528;-75
2023/06/22 06:48:36;;;;;;;13.40;9.15;;;;;;;24.28;72.35;64516.69;5087416;28;20196;-74
2023/06/22 06:51:03;;;;;;;16.90;10.18;;;;;;;24.59;67.89;64549.13;5082995;28;20215;-76
2023/06/22 06:53:32;;;;;;;11.85;9.95;;;;;;;24.98;67.51;64593.13;5066585;28;20199;-74
2023/06/22 06:55:59;;;;;;;12.85;9.60;;;;;;;25.10;66.40;64600.47;5068690;28;20416;-76
2023/06/22 06:58:26;;;;;;;13.15;8.57;;;;;;;25.35;64.53;64628.22;5066545;28;20551;-75
2023/06/22 07:00:53;;;;;;;11.45;10.18;;;;;;;25.39;65.48;64632.97;5081590;28;20234;-76
2023/06/22 07:03:20;;;;;;;13.13;9.38;;;;;;;25.34;66.07;64625.09;5086470;28;20211;-74
2023/06/22 07:05:46;;;;;;;10.57;9.38;;;;;;;25.45;64.57;64639.25;5069790;28;20278;-76
2023/06/22 07:08:13;;;;;;;17.75;10.52;;;;;;;25.63;62.65;64658.09;5069763;28;20216;-75
2023/06/22 07:10:42;;;;;;;10.35;9.00;;;;;;;25.47;64.52;64636.13;5077787;28;20284;-74
2023/06/22 07:13:09;;;;;;;11.60;9.85;;;;;;;25.56;63.18;64650.25;5067557;28;20201;-76
2023/06/22 07:15:36;;;;;;;16.70;9.70;;;;;;;25.63;62.21;64657.56;5066466;28;20483;-76
2023/06/22 07:18:03;;;;;;;9.60;8.68;;;;;;;25.62;61.62;64654.47;5068022;28;20200;-76
2023/06/22 07:20:30;;;;;;;11.13;9.73;;;;;;;25.81;65.50;64676.97;5085970;28;20291;-76
2023/06/22 07:22:58;;;;;;;14.05;9.80;;;;;;;25.71;67.47;64668.59;5078410;28;20205;-74
2023/06/22 07:25:25;;;;;;;12.63;10.07;;;;;;;25.73;63.37;64670.69;5069973;28;20225;-75
2023/06/22 07:28:02;;;;;;;10.30;9.40;;;;;;;25.68;63.52;64660.22;5074426;28;20254;-76
2023/06/22 07:30:29;;;;;;;13.60;9.43;;;;;;;25.81;64.76;64673.84;5068650;28;20235;-75
2023/06/22 07:32:56;;;;;;;11.23;9.07;;;;;;;25.94;64.47;64693.22;5068484;28;20197;-75
2023/06/22 07:35:23;;;;;;;10.48;9.55;;;;;;;26.11;62.67;64705.31;5067682;28;20208;-74
2023/06/22 07:37:50;;;;;;;13.63;10.65;;;;;;;25.80;62.95;64675.41;5074286;28;20262;-74
2023/06/22 07:40:17;;;;;;;16.95;9.82;;;;;;;25.49;65.41;64640.31;5067305;28;20259;-76
2023/06/22 07:42:47;;;;;;;11.55;10.35;;;;;;;25.45;64.21;64636.13;5067245;28;20247;-73
2023/06/22 07:45:16;;;;;;;13.05;9.73;;;;;;;25.64;66.15;64653.94;5067242;28;20427;-75
2023/06/22 07:47:43;;;;;;;17.98;10.57;;;;;;;25.50;65.14;64644.50;5085499;28;20270;-74
2023/06/22 07:50:11;;;;;;;14.50;10.77;;;;;;;25.13;67.18;64608.31;5086495;28;20350;-75
2023/06/22 07:52:38;;;;;;;13.88;10.57;;;;;;;25.43;65.92;64639.78;5087326;28;20223;-76
2023/06/22 07:55:06;;;;;;;12.88;10.65;;;;;;;25.54;66.21;64645.56;5083425;28;20569;-74
2023/06/22 07:57:36;;;;;;;17.90;11.32;;;;;;;25.65;64.88;64662.81;5086375;28;20196;-76
2023/06/22 08:00:12;;;;;;;17.58;11.90;;;;;;;25.87;64.67;64685.88;5072598;28;20197;-73
2023/06/22 08:02:40;;;;;;;15.77;12.15;;;;;;;26.00;64.68;64694.28;5068916;28;20332;-75
2023/06/22 08:05:08;;;;;;;13.05;11.18;;;;;;;26.45;63.20;64743.03;5065609;28;20235;-76
2023/06/22 08:07:37;;;;;;;11.63;10.00;;;;;;;26.29;60.33;64726.25;5065389;28;20228;-77
2023/06/22 08:10:12;;;;;;;14.02;10.13;;;;;;;26.15;59.91;64707.41;5078327;28;20204;-76
2023/06/22 08:12:39;;;;;;;13.60;10.27;;;;;;;26.27;60.61;64727.31;5086350;28;20196;-74
2023/06/22 08:15:09;;;;;;;11.73;10.38;;;;;;;26.28;59.21;64723.13;5080720;28;20258;-76
2023/06/22 08:17:37;;;;;;;13.02;11.00;;;;;;;26.47;58.41;64743.06;5085500;28;20196;-74
2023/06/22 08:20:09;;;;;;;12.38;10.07;;;;;;;26.49;56.42;64747.25;5083436;28;20204;-75
2023/06/22 08:22:37;;;;;;;12.10;10.90;;;;;;;26.54;56.94;64752.47;5085696;28;20207;-75
2023/06/22 08:25:06;;;;;;;12.02;10.90;;;;;;;26.86;56.82;64780.81;5085523;28;20204;-76
2023/06/22 08:27:33;;;;;;;11.55;10.30;;;;;;;26.72;58.80;64771.38;5067896;28;20302;-75
2023/06/22 08:30:00;;;;;;;12.15;10.95;;;;;;;26.43;55.43;64738.31;5065364;28;20539;-74
2023/06/22 08:32:28;;;;;;;11.27;10.00;;;;;;;26.23;56.87;64719.97;5065155;28;20197;-75
2023/06/22 08:34:55;;;;;;;14.10;10.27;;;;;;;26.40;57.79;64735.72;5073272;28;20242;-74
2023/06/22 08:37:30;;;;;;;11.63;10.02;;;;;;;26.77;56.27;64777.13;5085101;28;20306;-76
2023/06/22 08:39:57;;;;;;;12.15;10.25;;;;;;;27.22;55.75;64821.19;5082614;28;20493;-74
2023/06/22 08:42:25;;;;;;;11.98;10.82;;;;;;;27.17;55.13;64816.50;5078911;28;20492;-74
2023/06/22 08:44:53;;;;;;;15.10;10.05;;;;;;;27.34;54.06;64833.81;5065628;28;20242;-75
2023/06/22 08:47:21;;;;;;;12.02;10.77;;;;;;;27.55;55.25;64863.19;5064820;28;20290;-74
2023/06/22 08:49:49;;;;;;;11.85;10.32;;;;;;;27.38;56.03;64838.00;5064535;28;20269;-76
2023/06/22 08:52:16;;;;;;;13.25;10.10;;;;;;;26.84;56.66;64784.47;5063314;28;20225;-74
2023/06/22 08:54:44;;;;;;;11.32;10.18;;;;;;;26.68;57.76;64762.47;5066630;28;20207;-76
2023/06/22 08:57:11;;;;;;;14.73;10.25;;;;;;;26.40;56.75;64737.81;5064143;28;20319;-74
2023/06/22 08:59:40;;;;;;;10.57;9.57;;;;;;;26.23;56.54;64715.28;5065861;28;20197;-75
2023/06/22 09:02:07;;;;;;;10.85;9.85;;;;;;;26.36;57.58;64731.53;5065565;28;20221;-74
2023/06/22 09:04:34;;;;;;;13.50;10.60;;;;;;;26.50;59.39;64748.28;5076941;28;20429;-76
2023/06/22 09:07:01;;;;;;;11.18;10.02;;;;;;;26.68;58.48;64761.97;5069147;28;20324;-75
2023/06/22 09:09:28;;;;;;;11.13;10.02;;;;;;;26.86;56.34;64780.81;5078821;28;20427;-76
2023/06/22 09:11:57;;;;;;;10.48;9.38;;;;;;;27.15;56.45;64814.38;5081612;28;20414;-74
2023/06/22 09:14:24;;;;;;;14.50;10.73;;;;;;;27.21;55.88;64820.16;5070525;28;20345;-74
2023/06/22 09:16:51;;;;;;;16.42;11.00;;;;;;;27.17;56.99;64818.56;5067064;28;20224;-73
2023/06/22 09:19:18;;;;;;;11.82;10.63;;;;;;;27.18;56.46;64817.03;5064139;28;20269;-75
2023/06/22 09:21:45;;;;;;;11.68;10.48;;;;;;;27.18;58.88;64820.16;5071146;28;20235;-73
2023/06/22 09:24:12;;;;;;;10.07;9.05;;;;;;;27.32;60.23;64829.09;5083616;28;20267;-75
2023/06/22 09:26:39;;;;;;;14.80;10.00;;;;;;;27.47;56.10;64852.69;5070773;28;20229;-75
2023/06/22 09:29:08;;;;;;;14.43;10.38;;;;;;;27.45;55.53;64847.97;5063968;28;20207;-76
2023/06/22 09:31:36;;;;;;;11.55;10.52;;;;;;;27.72;53.79;64870.53;5085020;28;20234;-74
2023/06/22 09:34:03;;;;;;;10.77;9.82;;;;;;;27.66;52.91;64866.88;5071414;28;20382;-75
2023/06/22 09:36:30;;;;;;;9.60;8.63;;;;;;;27.79;50.69;64880.50;5063946;28;20220;-74
2023/06/22 09:38:58;;;;;;;9.13;8.23;;;;;;;27.67;50.01;64865.81;5069655;28;20246;-75
2023/06/22 09:41:26;;;;;;;9.75;8.85;;;;;;;27.72;51.16;64873.69;5083114;28;20369;-76
2023/06/22 09:43:53;;;;;;;10.07;9.07;;;;;;;27.78;52.03;64882.09;5084400;28;20224;-77
2023/06/22 09:46:24;;;;;;;8.98;8.18;;;;;;;27.75;49.49;64876.84;5084342;28;20220;-75
2023/06/22 09:48:51;;;;;;;13.43;8.27;;;;;;;27.84;50.42;64885.75;5075110;28;20276;-75
2023/06/22 09:51:19;;;;;;;9.60;8.82;;;;;;;28.03;51.35;64906.25;5075760;28;20441;-75
2023/06/22 09:53:46;;;;;;;9.90;8.93;;;;;;;28.14;50.45;64919.91;5079046;28;20228;-75
2023/06/22 09:56:14;;;;;;;8.95;8.15;;;;;;;27.86;47.05;64893.63;5063907;28;20445;-75
2023/06/22 09:58:42;;;;;;;9.52;8.68;;;;;;;27.89;49.86;64896.78;5062668;28;20197;-75
2023/06/22 10:01:11;;;;;;;8.75;7.88;;;;;;;28.03;47.37;64905.72;5064304;28;20220;-74
2023/06/22 10:03:40;;;;;;;18.85;8.27;;;;;;;28.25;46.94;64931.97;5065578;28;20211;-75
2023/06/22 10:06:08;;;;;;;8.80;7.97;;;;;;;28.58;46.17;64966.09;5063629;28;20225;-74
2023/06/22 10:08:35;;;;;;;9.65;8.18;;;;;;;28.75;47.54;64980.81;5079222;28;20232;-77
2023/06/22 10:11:03;;;;;;;8.38;7.47;;;;;;;28.84;45.25;64992.88;5066163;28;20281;-76
2023/06/22 10:13:30;;;;;;;7.97;7.38;;;;;;;28.95;45.02;65004.44;5067487;28;20200;-75
2023/06/22 10:15:58;;;;;;;8.73;8.02;;;;;;;29.11;46.65;65016.03;5067573;28;20220;-73
2023/06/22 10:18:25;;;;;;;8.50;7.70;;;;;;;28.69;42.74;64977.13;5062606;28;20231;-74
2023/06/22 10:20:53;;;;;;;8.90;8.20;;;;;;;28.51;43.53;64956.13;5063703;28;20278;-74
2023/06/22 10:23:21;;;;;;;8.07;7.32;;;;;;;28.42;43.47;64944.56;5083587;28;20196;-74
2023/06/22 10:25:49;;;;;;;9.20;8.40;;;;;;;28.50;44.96;64957.69;5063605;28;20471;-75
2023/06/22 10:28:16;;;;;;;8.32;7.53;;;;;;;28.44;43.62;64948.75;5063196;28;20534;-74
2023/06/22 10:30:44;;;;;;;8.88;8.18;;;;;;;28.43;44.53;64952.97;5063746;28;20228;-76
2023/06/22 10:33:12;;;;;;;10.52;7.30;;;;;;;28.66;42.07;64974.00;5066716;28;20208;-75
2023/06/22 10:35:39;;;;;;;9.40;8.43;;;;;;;28.79;42.74;64985.00;5082188;28;20415;-74
2023/06/22 10:38:08;;;;;;;9.85;8.07;;;;;;;28.83;43.95;64995.00;5084251;28;20513;-75
2023/06/22 10:40:35;;;;;;;8.40;7.80;;;;;;;28.66;43.40;64971.91;5085009;28;20223;-74
2023/06/22 10:43:03;;;;;;;8.57;7.85;;;;;;;28.45;43.04;64949.81;5063811;28;20200;-77
2023/06/22 10:45:30;;;;;;;8.77;8.02;;;;;;;28.70;43.67;64975.56;5067679;28;20292;-76
2023/06/22 10:47:57;;;;;;;8.77;7.97;;;;;;;28.98;44.19;65010.75;5080469;28;20431;-74
2023/06/22 10:50:25;;;;;;;9.32;8.52;;;;;;;29.06;43.43;65016.53;5078706;28;20325;-75
2023/06/22 10:52:52;;;;;;;9.07;8.25;;;;;;;29.16;44.82;65024.44;5073672;28;20408;-77
2023/06/22 10:55:21;;;;;;;8.75;7.82;;;;;;;29.30;46.14;65039.13;5071515;28;20208;-76
2023/06/22 10:57:49;;;;;;;9.00;8.20;;;;;;;29.34;44.77;65045.44;5067730;28;20574;-75
2023/06/22 11:00:17;;;;;;;8.43;7.80;;;;;;;29.37;43.43;65048.59;5068312;28;20201;-76
2023/06/22 11:02:44;;;;;;;9.27;8.45;;;;;;;29.37;43.21;65049.13;5063254;28;20200;-76
2023/06/22 11:05:12;;;;;;;8.88;7.97;;;;;;;29.40;41.26;65052.28;5063539;28;20217;-75
2023/06/22 11:07:40;;;;;;;8.90;8.13;;;;;;;29.27;42.54;65035.47;5062579;28;20270;-75
2023/06/22 11:10:09;;;;;;;9.13;8.32;;;;;;;29.20;43.30;65028.63;5069888;28;20205;-77
2023/06/22 11:12:37;;;;;;;11.93;8.23;;;;;;;29.44;44.79;65055.97;5078269;28;20192;-76
2023/06/22 11:15:05;;;;;;;10.13;8.18;;;;;;;29.79;45.10;65097.47;5071089;28;20211;-76
2023/06/22 11:17:32;;;;;;;9.75;8.75;;;;;;;30.12;44.29;65127.44;5072770;28;20250;-76
2023/06/22 11:20:00;;;;;;;9.07;8.38;;;;;;;30.51;43.00;65165.84;5067476;28;20200;-75
2023/06/22 11:22:27;;;;;;;9.02;7.72;;;;;;;30.69;42.61;65186.34;5066693;28;20195;-76
2023/06/22 11:24:54;;;;;;;10.02;8.13;;;;;;;30.61;42.10;65175.84;5068516;28;20378;-77
2023/06/22 11:27:21;;;;;;;8.50;7.80;;;;;;;30.61;41.16;65181.09;5085825;28;20558;-78